Time;durP1;ratioP1;P1;durP2;ratioP2;P2;SDS_P1;SDS_P2;PMS_P1;PMS_P2;Temp;Humidity;BMP_temperature;BMP_pressure;BME280_temperature;BME280_humidity;BME280_pressure;Samples;Min_cycle;Max_cycle;Signal;HPM_P1;HPM_P2
2021/11/14 00:01:28;;;;;;;1999.90;999.90;;;;;;;3.85;60.40;101371.31;4907045;28;99323;-71
2021/11/14 00:03:56;;;;;;;1999.90;999.90;;;;;;;3.85;60.41;101373.03;4909510;28;98001;-69
2021/11/14 00:06:24;;;;;;;1999.90;999.90;;;;;;;3.84;60.17;101373.88;4905157;28;98565;-70
2021/11/14 00:08:52;;;;;;;1999.90;999.90;;;;;;;3.83;60.28;101375.59;4904628;28;97580;-70
2021/11/14 00:11:20;;;;;;;1999.90;999.90;;;;;;;3.81;60.44;101379.84;4904276;28;99388;-69
2021/11/14 00:13:50;;;;;;;1999.90;999.90;;;;;;;3.79;60.52;101373.59;4908144;28;97692;-70
2021/11/14 00:16:19;;;;;;;1999.90;999.90;;;;;;;3.80;60.32;101374.50;4905773;28;97849;-71
2021/11/14 00:18:50;;;;;;;1999.90;999.90;;;;;;;3.79;60.49;101373.59;4905852;28;97912;-69
2021/11/14 00:21:20;;;;;;;1999.90;999.90;;;;;;;3.80;60.36;101371.88;4907188;28;97642;-70
2021/11/14 00:23:49;;;;;;;1999.90;999.90;;;;;;;3.77;60.55;101375.22;4907291;28;97031;-70
2021/11/14 00:26:17;;;;;;;1999.90;999.90;;;;;;;3.77;60.53;101380.50;4908671;28;97227;-70
2021/11/14 00:28:45;;;;;;;1999.90;999.90;;;;;;;3.78;60.60;101382.31;4906734;28;97648;-69
2021/11/14 00:31:16;;;;;;;1999.90;999.90;;;;;;;3.79;60.49;101384.13;4902916;28;99701;-70
2021/11/14 00:33:46;;;;;;;1999.90;999.90;;;;;;;3.82;60.35;101378.13;4907012;28;97289;-70
2021/11/14 00:36:19;;;;;;;1999.90;999.90;;;;;;;3.81;60.49;101386.84;4906379;28;97898;-71
2021/11/14 00:38:46;;;;;;;1999.90;999.90;;;;;;;3.81;60.43;101385.13;4905775;28;100827;-70
2021/11/14 00:41:15;;;;;;;1999.90;999.90;;;;;;;3.80;60.25;101388.59;4907461;28;97520;-71
2021/11/14 00:43:42;;;;;;;1999.90;999.90;;;;;;;3.80;60.25;101383.31;4904578;28;96901;-69
2021/11/14 00:46:10;;;;;;;1999.90;999.90;;;;;;;3.81;60.46;101395.66;4907220;28;97617;-70
2021/11/14 00:48:41;;;;;;;1999.90;999.90;;;;;;;3.80;60.17;101393.84;4906454;28;98917;-71
2021/11/14 00:51:10;;;;;;;1999.90;999.90;;;;;;;3.81;60.37;101394.72;4903345;28;99288;-69
2021/11/14 00:53:40;;;;;;;1999.90;999.90;;;;;;;3.80;60.51;101401.75;4905238;28;97108;-72
2021/11/14 00:56:08;;;;;;;1999.90;999.90;;;;;;;3.80;60.28;101401.75;4904155;28;97406;-71
2021/11/14 00:58:36;;;;;;;1999.90;999.90;;;;;;;3.82;60.33;101404.47;4906342;28;97698;-70
2021/11/14 01:01:04;;;;;;;1999.90;999.90;;;;;;;3.81;60.33;101414.06;4904238;28;99708;-70
2021/11/14 01:03:32;;;;;;;1999.90;999.90;;;;;;;3.81;60.58;101406.19;4917626;28;97878;-72
2021/11/14 01:05:59;;;;;;;1999.90;999.90;;;;;;;3.81;60.47;101413.16;4904413;28;97353;-71
2021/11/14 01:08:28;;;;;;;1999.90;999.90;;;;;;;3.82;60.63;101410.66;4902868;28;99293;-70
2021/11/14 01:10:59;;;;;;;1999.90;999.90;;;;;;;3.81;60.40;101408.81;4904361;28;98649;-71
2021/11/14 01:13:26;;;;;;;1999.90;999.90;;;;;;;3.83;60.35;101417.72;4906389;28;96841;-69
2021/11/14 01:15:55;;;;;;;1999.90;999.90;;;;;;;3.82;60.13;101415.00;4905656;28;97533;-72
2021/11/14 01:18:23;;;;;;;1999.90;999.90;;;;;;;3.81;60.28;101414.06;4906342;28;100384;-70
2021/11/14 01:20:54;;;;;;;1999.90;999.90;;;;;;;3.83;60.29;101422.06;4918100;28;99413;-69
2021/11/14 01:23:23;;;;;;;1999.90;999.90;;;;;;;3.83;60.19;101424.69;4904838;28;97156;-70
2021/11/14 01:25:52;;;;;;;1999.90;999.90;;;;;;;3.82;60.37;101425.53;4903869;28;97145;-70
2021/11/14 01:28:21;;;;;;;1999.90;999.90;;;;;;;3.81;60.20;101427.25;4903697;28;99130;-70
2021/11/14 01:30:52;;;;;;;1999.90;999.90;;;;;;;3.82;60.36;101428.16;4905447;28;98086;-70
2021/11/14 01:33:23;;;;;;;1999.90;999.90;;;;;;;3.81;60.23;101434.22;4906960;28;96834;-70
2021/11/14 01:35:53;;;;;;;1999.90;999.90;;;;;;;3.79;60.29;101431.50;4905573;28;97291;-70
2021/11/14 01:38:21;;;;;;;1999.90;999.90;;;;;;;3.79;60.06;101435.84;4904321;28;97882;-72
2021/11/14 01:40:54;;;;;;;1999.90;999.90;;;;;;;3.78;60.27;101434.06;4906029;28;97956;-72
2021/11/14 01:43:24;;;;;;;1999.90;999.90;;;;;;;3.76;60.19;101435.69;4905580;28;97502;-71
2021/11/14 01:45:52;;;;;;;1999.90;999.90;;;;;;;3.78;60.27;101439.31;4906391;28;97702;-69
2021/11/14 01:48:21;;;;;;;1999.90;999.90;;;;;;;3.77;60.57;101443.66;4905119;28;97431;-71
2021/11/14 01:50:50;;;;;;;1999.90;999.90;;;;;;;3.78;60.33;101453.41;4908030;28;99212;-70
2021/11/14 01:53:18;;;;;;;1999.90;999.90;;;;;;;3.76;60.25;101441.88;4906594;28;97188;-70
2021/11/14 01:55:50;;;;;;;1999.90;999.90;;;;;;;3.76;60.30;101451.47;4907631;28;97481;-72
2021/11/14 01:58:20;;;;;;;1999.90;999.90;;;;;;;3.76;60.26;101457.66;4917411;28;99436;-71
2021/11/14 02:00:52;;;;;;;1999.90;999.90;;;;;;;3.76;60.18;101457.66;4920280;28;97845;-72
2021/11/14 02:03:21;;;;;;;1999.90;999.90;;;;;;;3.76;60.54;101468.19;4905882;28;99480;-69
2021/11/14 02:05:49;;;;;;;1999.90;999.90;;;;;;;3.76;60.50;101467.25;4904261;28;98499;-71
2021/11/14 02:08:17;;;;;;;1999.90;999.90;;;;;;;3.76;60.53;101465.56;4905922;28;97472;-70
2021/11/14 02:10:46;;;;;;;1999.90;999.90;;;;;;;3.77;60.25;101475.25;4903086;28;98099;-70
2021/11/14 02:13:14;;;;;;;1999.90;999.90;;;;;;;3.76;60.63;101473.44;4904398;28;97869;-69
2021/11/14 02:15:42;;;;;;;1999.90;999.90;;;;;;;3.76;60.33;101469.91;4904513;28;97586;-71
2021/11/14 02:18:14;;;;;;;1999.90;999.90;;;;;;;3.75;60.15;101481.25;4902890;28;100775;-71
2021/11/14 02:20:44;;;;;;;1999.90;999.90;;;;;;;3.74;60.39;101477.72;4902960;28;99222;-70
2021/11/14 02:23:14;;;;;;;1999.90;999.90;;;;;;;3.73;60.31;101486.41;4905361;28;96847;-70
2021/11/14 02:25:43;;;;;;;1999.90;999.90;;;;;;;3.73;60.30;101488.16;4903844;28;97983;-71
2021/11/14 02:28:10;;;;;;;1999.90;999.90;;;;;;;3.73;60.38;101496.06;4916434;28;98026;-71
2021/11/14 02:30:38;;;;;;;1999.90;999.90;;;;;;;3.73;60.54;101496.94;4920215;28;97709;-70
2021/11/14 02:33:06;;;;;;;1999.90;999.90;;;;;;;3.73;60.38;101501.31;4905894;28;97682;-69
2021/11/14 02:35:40;;;;;;;1999.90;999.90;;;;;;;3.73;60.30;101498.69;4903255;28;97531;-72
2021/11/14 02:38:09;;;;;;;1999.90;999.90;;;;;;;3.73;60.23;101501.31;4915875;28;100148;-70
2021/11/14 02:40:39;;;;;;;1999.90;999.90;;;;;;;3.71;60.24;101498.59;4904750;28;98934;-71
2021/11/14 02:43:06;;;;;;;1999.90;999.90;;;;;;;3.72;60.34;101499.47;4904567;28;97634;-71
2021/11/14 02:45:34;;;;;;;1999.90;999.90;;;;;;;3.72;60.44;101508.28;4903866;28;98012;-69
2021/11/14 02:48:03;;;;;;;1999.90;999.90;;;;;;;3.72;60.32;101503.03;4916328;28;102229;-69
2021/11/14 02:50:31;;;;;;;1999.90;999.90;;;;;;;3.71;60.31;101506.50;4904432;28;98106;-69
2021/11/14 02:52:59;;;;;;;1999.90;999.90;;;;;;;3.72;60.25;101508.28;4907530;28;98110;-69
2021/11/14 02:55:29;;;;;;;1999.90;999.90;;;;;;;3.71;60.10;101501.22;4920217;28;97239;-70
2021/11/14 02:57:57;;;;;;;1999.90;999.90;;;;;;;3.73;60.32;101507.47;4905671;28;100777;-69
2021/11/14 03:00:27;;;;;;;1999.90;999.90;;;;;;;3.73;60.42;101509.22;4920656;28;99428;-70
2021/11/14 03:02:55;;;;;;;1999.90;999.90;;;;;;;3.71;60.40;101505.56;4934554;28;97000;-70
2021/11/14 03:05:24;;;;;;;1999.90;999.90;;;;;;;3.70;60.22;101509.00;4906756;28;97151;-71
2021/11/14 03:07:52;;;;;;;1999.90;999.90;;;;;;;3.69;60.49;101516.03;4918395;28;100646;-70
2021/11/14 03:10:23;;;;;;;1999.90;999.90;;;;;;;3.68;60.36;101516.81;4907952;28;99120;-70
2021/11/14 03:12:57;;;;;;;1999.90;999.90;;;;;;;3.67;60.08;101525.53;4907872;28;96920;-69
2021/11/14 03:15:25;;;;;;;1999.90;999.90;;;;;;;3.67;60.14;101520.28;4907405;28;97981;-71
2021/11/14 03:17:53;;;;;;;1999.90;999.90;;;;;;;3.69;60.22;101523.00;4906237;28;100871;-70
2021/11/14 03:20:21;;;;;;;1999.90;999.90;;;;;;;3.70;60.13;101523.09;4907052;28;96989;-71
2021/11/14 03:22:49;;;;;;;1999.90;999.90;;;;;;;3.71;60.22;101524.91;4902796;28;97565;-68
2021/11/14 03:25:20;;;;;;;1999.90;999.90;;;;;;;3.69;60.38;101513.38;4908445;28;97044;-68
2021/11/14 03:27:49;;;;;;;1999.90;999.90;;;;;;;3.71;60.19;101526.63;4905540;28;97626;-70
2021/11/14 03:30:19;;;;;;;1999.90;999.90;;;;;;;3.70;60.19;101523.09;4909071;28;97542;-70
2021/11/14 03:32:46;;;;;;;1999.90;999.90;;;;;;;3.72;60.10;101525.81;4907326;28;98085;-70
2021/11/14 03:35:14;;;;;;;1999.90;999.90;;;;;;;3.72;60.28;101528.44;4919142;28;99636;-70
2021/11/14 03:37:42;;;;;;;1999.90;999.90;;;;;;;3.73;60.45;101523.25;4906724;28;98474;-70
2021/11/14 03:40:13;;;;;;;1999.90;999.90;;;;;;;3.73;60.29;101533.78;4907811;28;97977;-69
2021/11/14 03:42:41;;;;;;;1999.90;999.90;;;;;;;3.70;60.44;101528.34;4919045;28;96953;-70
2021/11/14 03:45:10;;;;;;;1999.90;999.90;;;;;;;3.71;60.31;101538.06;4908376;28;97246;-71
2021/11/14 03:47:39;;;;;;;1999.90;999.90;;;;;;;3.71;60.25;101537.16;4905866;28;99374;-70
2021/11/14 03:50:09;;;;;;;1999.90;999.90;;;;;;;3.71;60.18;101542.44;4907184;28;97527;-71
2021/11/14 03:52:37;;;;;;;1999.90;999.90;;;;;;;3.71;60.44;101540.72;4907916;28;96828;-69
2021/11/14 03:55:06;;;;;;;1999.90;999.90;;;;;;;3.70;60.26;101538.88;4920260;28;98372;-69
2021/11/14 03:57:34;;;;;;;1999.90;999.90;;;;;;;3.69;60.50;101539.72;4906007;28;97770;-70
2021/11/14 04:00:02;;;;;;;1999.90;999.90;;;;;;;3.70;60.19;101546.78;4905953;28;98921;-70
2021/11/14 04:02:32;;;;;;;1999.90;999.90;;;;;;;3.71;60.22;101545.97;4918486;28;97144;-69
2021/11/14 04:05:01;;;;;;;1999.90;999.90;;;;;;;3.71;60.15;101543.34;4918499;28;97174;-70
2021/11/14 04:07:29;;;;;;;1999.90;999.90;;;;;;;3.70;60.31;101543.22;4907962;28;98662;-70
2021/11/14 04:09:57;;;;;;;1999.90;999.90;;;;;;;3.70;60.14;101552.03;4919533;28;98896;-69
2021/11/14 04:12:25;;;;;;;1999.90;999.90;;;;;;;3.68;60.33;101558.94;4908950;28;99061;-70
2021/11/14 04:14:53;;;;;;;1999.90;999.90;;;;;;;3.69;60.53;101565.09;4908594;28;97045;-70
2021/11/14 04:17:20;;;;;;;1999.90;999.90;;;;;;;3.69;60.20;101566.03;4905074;28;97832;-71
2021/11/14 04:19:48;;;;;;;1999.90;999.90;;;;;;;3.68;60.25;101564.19;4904436;28;100257;-70
2021/11/14 04:22:17;;;;;;;1999.90;999.90;;;;;;;3.68;60.31;101569.44;4906395;28;97486;-70
2021/11/14 04:24:45;;;;;;;1999.90;999.90;;;;;;;3.66;60.46;101565.81;4905747;28;99287;-70
2021/11/14 04:27:13;;;;;;;1999.90;999.90;;;;;;;3.65;60.55;101571.91;4918314;28;99233;-70
2021/11/14 04:29:41;;;;;;;1999.90;999.90;;;;;;;3.65;60.31;101574.53;4904586;28;97984;-69
2021/11/14 04:32:13;;;;;;;1999.90;999.90;;;;;;;3.64;60.38;101585.81;4907395;28;97939;-71
2021/11/14 04:34:41;;;;;;;1999.90;999.90;;;;;;;3.64;60.55;101591.09;4907583;28;97518;-70
2021/11/14 04:37:10;;;;;;;1999.90;999.90;;;;;;;3.62;60.71;101589.19;4904145;28;99550;-69
2021/11/14 04:39:39;;;;;;;1999.90;999.90;;;;;;;3.59;60.63;101574.13;4904972;28;98370;-70
2021/11/14 04:42:08;;;;;;;1999.90;999.90;;;;;;;3.60;60.41;101581.22;4906205;28;98000;-68
2021/11/14 04:44:36;;;;;;;1999.90;999.90;;;;;;;3.59;60.57;101582.00;4918119;28;97574;-70
2021/11/14 04:47:04;;;;;;;1999.90;999.90;;;;;;;3.58;60.43;101593.38;4906683;28;97051;-69
2021/11/14 04:49:32;;;;;;;1999.90;999.90;;;;;;;3.59;60.52;101595.16;4905686;28;97057;-70
2021/11/14 04:52:00;;;;;;;1999.90;999.90;;;;;;;3.58;60.32;101597.72;4904659;28;99237;-70
2021/11/14 04:54:28;;;;;;;1999.90;999.90;;;;;;;3.58;60.49;101598.63;4906143;28;97523;-70
2021/11/14 04:56:57;;;;;;;1999.90;999.90;;;;;;;3.59;60.28;101610.03;4903889;28;100734;-71
2021/11/14 04:59:25;;;;;;;1999.90;999.90;;;;;;;3.60;60.42;101606.63;4903691;28;100430;-71
2021/11/14 05:01:53;;;;;;;1999.90;999.90;;;;;;;3.59;60.61;101605.69;4908030;28;98682;-70
2021/11/14 05:04:21;;;;;;;1999.90;999.90;;;;;;;3.58;60.63;101609.16;4904879;28;97961;-71
2021/11/14 05:06:49;;;;;;;1999.90;999.90;;;;;;;3.58;60.42;101611.78;4906231;28;98913;-71
2021/11/14 05:09:17;;;;;;;1999.90;999.90;;;;;;;3.58;60.18;101609.16;4905026;28;97314;-70
2021/11/14 05:11:44;;;;;;;1999.90;999.90;;;;;;;3.56;60.61;101616.03;4905878;28;97705;-68
2021/11/14 05:14:14;;;;;;;1999.90;999.90;;;;;;;3.59;60.40;101620.56;4907679;28;99314;-70
2021/11/14 05:16:41;;;;;;;1999.90;999.90;;;;;;;3.57;60.21;101620.47;4932778;28;97761;-70
2021/11/14 05:19:09;;;;;;;1999.90;999.90;;;;;;;3.58;60.43;101627.56;4906855;28;97661;-70
2021/11/14 05:21:38;;;;;;;1999.90;999.90;;;;;;;3.57;60.20;101624.84;4907763;28;97222;-69
2021/11/14 05:24:06;;;;;;;1999.90;999.90;;;;;;;3.55;60.32;101619.47;4906636;28;96798;-70
2021/11/14 05:26:34;;;;;;;1999.90;999.90;;;;;;;3.55;60.55;101623.84;4908469;28;98587;-70
2021/11/14 05:29:02;;;;;;;1999.90;999.90;;;;;;;3.51;60.59;101622.75;4903908;28;97443;-70
2021/11/14 05:31:31;;;;;;;1999.90;999.90;;;;;;;3.52;60.60;101624.56;4905508;28;98921;-70
2021/11/14 05:33:59;;;;;;;1999.90;999.90;;;;;;;3.53;60.71;101639.50;4904615;28;98179;-70
2021/11/14 05:36:27;;;;;;;1999.90;999.90;;;;;;;3.52;60.51;101637.72;4906614;28;97478;-70
2021/11/14 05:38:55;;;;;;;1999.90;999.90;;;;;;;3.53;60.28;101636.88;4903289;28;99010;-69
2021/11/14 05:41:23;;;;;;;1999.90;999.90;;;;;;;3.54;60.52;101643.97;4906055;28;97795;-70
2021/11/14 05:43:50;;;;;;;1999.90;999.90;;;;;;;3.52;60.53;101645.59;4904739;28;97266;-68
2021/11/14 05:46:18;;;;;;;1999.90;999.90;;;;;;;3.53;60.25;101652.66;4904973;28;96865;-69
2021/11/14 05:48:47;;;;;;;1999.90;999.90;;;;;;;3.53;60.49;101649.16;4903841;28;97823;-71
2021/11/14 05:51:20;;;;;;;1999.90;999.90;;;;;;;3.53;60.52;101646.53;4907349;28;97282;-69
2021/11/14 05:53:48;;;;;;;1999.90;999.90;;;;;;;3.55;60.18;101650.16;4905250;28;97222;-69
2021/11/14 05:56:15;;;;;;;1999.90;999.90;;;;;;;3.54;60.54;101661.47;4907099;28;99369;-69
2021/11/14 05:58:47;;;;;;;1999.90;999.90;;;;;;;3.55;60.14;101663.31;4903422;28;97480;-70
2021/11/14 06:01:24;;;;;;;1999.90;999.90;;;;;;;3.54;60.41;101665.03;4918002;28;97075;-70
2021/11/14 06:03:57;;;;;;;1999.90;999.90;;;;;;;3.55;60.37;101679.09;4905951;28;96850;-69
2021/11/14 06:06:26;;;;;;;1999.90;999.90;;;;;;;3.53;60.37;101673.72;4906265;28;97702;-70
2021/11/14 06:08:53;;;;;;;1999.90;999.90;;;;;;;3.53;60.53;101681.63;4917811;28;98211;-69
2021/11/14 06:11:23;;;;;;;1999.90;999.90;;;;;;;3.53;60.32;101676.34;4917455;28;97426;-70
2021/11/14 06:13:52;;;;;;;1999.90;999.90;;;;;;;3.52;60.47;101682.44;4923010;28;97198;-70
2021/11/14 06:16:20;;;;;;;1999.90;999.90;;;;;;;3.53;60.79;101693.88;4904427;28;99361;-69
2021/11/14 06:18:48;;;;;;;1999.90;999.90;;;;;;;3.52;60.45;101698.22;4903816;28;98996;-70
2021/11/14 06:21:18;;;;;;;1999.90;999.90;;;;;;;3.52;60.31;101702.56;4918011;28;96909;-69
2021/11/14 06:23:45;;;;;;;1999.90;999.90;;;;;;;3.53;60.37;101709.69;4905663;28;97795;-69
2021/11/14 06:26:13;;;;;;;1999.90;999.90;;;;;;;3.52;60.37;101713.09;4915626;28;99477;-70
2021/11/14 06:28:41;;;;;;;1999.90;999.90;;;;;;;3.52;60.26;101719.28;4904639;28;97680;-69
2021/11/14 06:31:08;;;;;;;1999.90;999.90;;;;;;;3.52;60.13;101729.81;4906915;28;97097;-69
2021/11/14 06:33:36;;;;;;;1999.90;999.90;;;;;;;3.53;60.14;101728.09;4918578;28;96775;-69
2021/11/14 06:36:04;;;;;;;1999.90;999.90;;;;;;;3.53;60.50;101731.59;4906174;28;98960;-68
2021/11/14 06:38:33;;;;;;;1999.90;999.90;;;;;;;3.51;60.31;101734.97;4903461;28;97558;-70
2021/11/14 06:41:01;;;;;;;1999.90;999.90;;;;;;;3.50;60.47;101741.03;4921605;28;98040;-70
2021/11/14 06:43:29;;;;;;;1999.90;999.90;;;;;;;3.50;60.39;101752.47;4905774;28;97440;-69
2021/11/14 06:45:57;;;;;;;1999.90;999.90;;;;;;;3.50;60.60;101751.56;4906611;28;98717;-69
2021/11/14 06:48:24;;;;;;;1999.90;999.90;;;;;;;3.50;60.18;101759.44;4915782;28;99556;-70
2021/11/14 06:50:53;;;;;;;1999.90;999.90;;;;;;;3.51;60.28;101766.56;4904476;28;96856;-70
2021/11/14 06:53:20;;;;;;;1999.90;999.90;;;;;;;3.50;60.05;101768.25;4901213;28;97482;-71
2021/11/14 06:55:49;;;;;;;1999.90;999.90;;;;;;;3.49;60.34;101769.09;4907384;28;97951;-70
2021/11/14 06:58:17;;;;;;;1999.90;999.90;;;;;;;3.48;60.10;101775.13;4906105;28;100817;-72
2021/11/14 07:00:45;;;;;;;1999.90;999.90;;;;;;;3.49;60.53;101781.31;4902989;28;98976;-69
2021/11/14 07:03:14;;;;;;;1999.90;999.90;;;;;;;3.48;60.48;101784.78;4909888;28;97480;-71
2021/11/14 07:05:42;;;;;;;1999.90;999.90;;;;;;;3.49;60.22;101790.13;4909271;28;97100;-71
2021/11/14 07:08:09;;;;;;;1999.90;999.90;;;;;;;3.48;60.18;101790.94;4902759;28;98973;-72
2021/11/14 07:10:37;;;;;;;1999.90;999.90;;;;;;;3.48;60.32;101790.94;4904949;28;97606;-70
2021/11/14 07:13:06;;;;;;;1999.90;999.90;;;;;;;3.48;60.06;101793.56;4895723;28;98807;-71
2021/11/14 07:15:35;;;;;;;1999.90;999.90;;;;;;;3.47;60.08;101799.66;4909554;28;98198;-70
2021/11/14 07:18:03;;;;;;;1999.90;999.90;;;;;;;3.47;60.30;101804.91;4909637;28;97839;-70
2021/11/14 07:20:30;;;;;;;1999.90;999.90;;;;;;;3.47;60.28;101804.91;4908318;28;98213;-71
2021/11/14 07:22:58;;;;;;;1999.90;999.90;;;;;;;3.46;60.51;101805.69;4909861;28;97241;-70
2021/11/14 07:25:26;;;;;;;1999.90;999.90;;;;;;;3.48;60.31;101818.97;4902219;28;100423;-71
2021/11/14 07:27:54;;;;;;;1999.90;999.90;;;;;;;3.48;60.26;101821.63;4908503;28;99242;-72
2021/11/14 07:30:25;;;;;;;1999.90;999.90;;;;;;;3.47;60.08;101819.78;4907323;28;97537;-71
2021/11/14 07:32:54;;;;;;;1999.90;999.90;;;;;;;3.48;60.20;101822.50;4910743;28;97416;-72
2021/11/14 07:35:24;;;;;;;1999.90;999.90;;;;;;;3.48;60.48;101825.13;4909672;28;100516;-72
2021/11/14 07:37:51;;;;;;;1999.90;999.90;;;;;;;3.49;60.45;101832.25;4912890;28;98116;-72
2021/11/14 07:40:22;;;;;;;1999.90;999.90;;;;;;;3.50;60.42;101830.50;4928083;28;98175;-71
2021/11/14 07:42:50;;;;;;;1999.90;999.90;;;;;;;3.50;60.21;101827.84;4911958;28;98366;-70
2021/11/14 07:45:20;;;;;;;1999.90;999.90;;;;;;;3.51;60.11;101828.00;4912007;28;97915;-72
2021/11/14 07:47:50;;;;;;;1999.90;999.90;;;;;;;3.52;60.31;101828.88;4912459;28;97789;-71
2021/11/14 07:50:20;;;;;;;1999.90;999.90;;;;;;;3.51;60.27;101833.25;4890093;28;97695;-73
2021/11/14 07:52:48;;;;;;;1999.90;999.90;;;;;;;3.53;60.14;101844.75;4905069;28;98007;-72
2021/11/14 07:55:17;;;;;;;1999.90;999.90;;;;;;;3.53;60.24;101836.88;4921690;28;98190;-73
2021/11/14 07:57:45;;;;;;;1999.90;999.90;;;;;;;3.51;60.23;101835.88;4908545;28;99218;-73
2021/11/14 08:00:15;;;;;;;1999.90;999.90;;;;;;;3.50;60.26;101841.00;4911993;28;97519;-70
2021/11/14 08:02:43;;;;;;;1999.90;999.90;;;;;;;3.50;60.02;101841.00;4909325;28;98430;-70
2021/11/14 08:05:13;;;;;;;1999.90;999.90;;;;;;;3.49;59.91;101840.13;4910606;28;98885;-71
2021/11/14 08:07:42;;;;;;;1999.90;999.90;;;;;;;3.50;59.98;101847.19;4913133;28;101613;-70
2021/11/14 08:10:10;;;;;;;1999.90;999.90;;;;;;;3.50;60.25;101857.72;4916258;28;97400;-71
2021/11/14 08:12:38;;;;;;;1999.90;999.90;;;;;;;3.49;60.52;101853.28;4910221;28;97119;-71
2021/11/14 08:15:07;;;;;;;1999.90;999.90;;;;;;;3.50;60.09;101857.72;4908016;28;97947;-72
2021/11/14 08:17:35;;;;;;;1999.90;999.90;;;;;;;3.52;59.89;101860.44;4912027;28;98671;-71
2021/11/14 08:20:05;;;;;;;1999.90;999.90;;;;;;;3.51;59.97;101862.19;4934260;28;96940;-71
2021/11/14 08:22:34;;;;;;;1999.90;999.90;;;;;;;3.52;60.12;101866.63;4926035;28;98245;-70
2021/11/14 08:25:03;;;;;;;1999.90;999.90;;;;;;;3.50;60.06;101868.25;4911331;28;97192;-70
2021/11/14 08:27:32;;;;;;;1999.90;999.90;;;;;;;3.50;60.14;101868.25;4935969;28;99629;-71
2021/11/14 08:30:00;;;;;;;1999.90;999.90;;;;;;;3.51;60.07;101870.09;4909419;28;98935;-72
2021/11/14 08:32:28;;;;;;;1999.90;999.90;;;;;;;3.50;60.11;101878.78;4901280;28;97439;-70
2021/11/14 08:34:56;;;;;;;1999.90;999.90;;;;;;;3.50;59.89;101878.78;4919219;28;99452;-73
2021/11/14 08:37:24;;;;;;;1999.90;999.90;;;;;;;3.46;60.37;101876.75;4915920;28;97775;-73
2021/11/14 08:39:55;;;;;;;1999.90;999.90;;;;;;;3.44;60.08;101883.63;4906819;28;97324;-71
2021/11/14 08:42:22;;;;;;;1999.90;999.90;;;;;;;3.45;60.20;101888.09;4908190;28;97972;-73
2021/11/14 08:44:51;;;;;;;1999.90;999.90;;;;;;;3.46;60.20;101887.25;4917168;28;100483;-73
2021/11/14 08:47:19;;;;;;;1999.90;999.90;;;;;;;3.44;60.03;101896.78;4908312;28;99050;-72
2021/11/14 08:49:46;;;;;;;1999.90;999.90;;;;;;;3.44;60.31;101906.41;4904054;28;97299;-72
2021/11/14 08:52:14;;;;;;;1999.90;999.90;;;;;;;3.44;60.20;101907.28;4905038;28;97181;-71
2021/11/14 08:54:42;;;;;;;1999.90;999.90;;;;;;;3.46;60.45;101899.53;4922404;28;99344;-71
2021/11/14 08:57:11;;;;;;;1999.90;999.90;;;;;;;3.47;60.31;101920.69;4906339;28;97705;-73
2021/11/14 08:59:39;;;;;;;1999.90;999.90;;;;;;;3.49;60.20;101912.88;4901241;28;97888;-73
2021/11/14 09:02:07;;;;;;;1999.90;999.90;;;;;;;3.50;60.09;101912.97;4906860;28;97679;-73
2021/11/14 09:04:35;;;;;;;1999.90;999.90;;;;;;;3.51;59.96;101922.72;4907403;28;98782;-73
2021/11/14 09:07:05;;;;;;;1999.90;999.90;;;;;;;3.52;60.00;101929.78;4915974;28;98894;-73
2021/11/14 09:09:33;;;;;;;1999.90;999.90;;;;;;;3.53;59.77;101936.88;4916955;28;97361;-73
2021/11/14 09:12:01;;;;;;;1999.90;999.90;;;;;;;3.52;59.79;101935.06;4922129;28;98320;-73
2021/11/14 09:14:30;;;;;;;1999.90;999.90;;;;;;;3.53;59.76;101942.13;4907081;28;98868;-74
2021/11/14 09:16:58;;;;;;;1999.90;999.90;;;;;;;3.54;60.15;101940.41;4908676;28;97837;-73
2021/11/14 09:19:26;;;;;;;1999.90;999.90;;;;;;;3.53;60.08;101942.13;4909967;28;97698;-72
2021/11/14 09:21:53;;;;;;;1999.90;999.90;;;;;;;3.56;59.94;101941.44;4919508;28;97113;-74
2021/11/14 09:24:21;;;;;;;1999.90;999.90;;;;;;;3.55;59.84;101953.66;4919724;28;99804;-74
2021/11/14 09:26:49;;;;;;;1999.90;999.90;;;;;;;3.50;59.93;101951.53;4907115;28;100748;-73
2021/11/14 09:29:17;;;;;;;1999.90;999.90;;;;;;;3.50;59.85;101954.16;4905978;28;97505;-73
2021/11/14 09:31:46;;;;;;;1999.90;999.90;;;;;;;3.50;60.06;101962.97;4909101;28;96761;-73
2021/11/14 09:34:14;;;;;;;1999.90;999.90;;;;;;;3.50;60.21;101968.25;4900816;28;100874;-72
2021/11/14 09:36:41;;;;;;;1999.90;999.90;;;;;;;3.49;59.84;101973.41;4906867;28;98093;-73
2021/11/14 09:39:12;;;;;;;1999.90;999.90;;;;;;;3.49;59.85;101966.44;4909749;28;97543;-72
2021/11/14 09:41:42;;;;;;;1999.90;999.90;;;;;;;3.49;59.90;101971.69;4909979;28;97285;-74
2021/11/14 09:44:11;;;;;;;1999.90;999.90;;;;;;;3.51;59.66;101969.16;4919867;28;98883;-73
2021/11/14 09:46:40;;;;;;;1999.90;999.90;;;;;;;3.52;60.01;101970.97;4909454;28;98941;-73
2021/11/14 09:49:10;;;;;;;1999.90;999.90;;;;;;;3.54;59.83;101980.81;4905881;28;97362;-72
2021/11/14 09:51:37;;;;;;;1999.90;999.90;;;;;;;3.55;59.92;101973.84;4907663;28;96897;-73
2021/11/14 09:54:08;;;;;;;1999.90;999.90;;;;;;;3.55;59.88;101972.09;4912696;28;97733;-73
2021/11/14 09:56:36;;;;;;;1999.90;999.90;;;;;;;3.57;59.80;101969.59;4909916;28;98967;-74
2021/11/14 09:59:04;;;;;;;1999.90;999.90;;;;;;;3.56;59.83;101968.66;4918528;28;97989;-74
2021/11/14 10:01:32;;;;;;;1999.90;999.90;;;;;;;3.56;59.49;101968.66;4904981;28;98276;-72
2021/11/14 10:04:00;;;;;;;1999.90;999.90;;;;;;;3.58;59.88;101971.41;4905412;28;98803;-72
2021/11/14 10:06:29;;;;;;;1999.90;999.90;;;;;;;3.58;59.66;101977.59;4898845;28;99781;-72
2021/11/14 10:08:57;;;;;;;1999.90;999.90;;;;;;;3.59;59.61;101979.41;4904959;28;98203;-73
2021/11/14 10:11:33;;;;;;;1999.90;999.90;;;;;;;3.60;59.59;101980.31;4907985;28;98783;-70
2021/11/14 10:14:01;;;;;;;1999.90;999.90;;;;;;;3.61;59.70;101985.69;4906916;28;101187;-72
2021/11/14 10:16:30;;;;;;;1999.90;999.90;;;;;;;3.64;59.71;101993.78;4907103;28;98081;-71
2021/11/14 10:19:02;;;;;;;1999.90;999.90;;;;;;;3.63;59.45;101989.34;4924736;28;97120;-71
2021/11/14 10:21:33;;;;;;;1999.90;999.90;;;;;;;3.62;59.43;101994.50;4906788;28;97985;-72
2021/11/14 10:24:01;;;;;;;1999.90;999.90;;;;;;;3.63;59.56;101996.31;4908126;28;97566;-72
2021/11/14 10:26:29;;;;;;;1999.90;999.90;;;;;;;3.65;59.63;101994.72;4906217;28;99823;-73
2021/11/14 10:29:00;;;;;;;1999.90;999.90;;;;;;;3.64;59.36;101996.41;4913145;28;96978;-73
2021/11/14 10:31:29;;;;;;;1999.90;999.90;;;;;;;3.63;59.34;101999.84;4905949;28;97913;-73
2021/11/14 10:33:56;;;;;;;1999.90;999.90;;;;;;;3.62;59.59;102003.31;4909869;28;98728;-73
2021/11/14 10:36:26;;;;;;;1999.90;999.90;;;;;;;3.63;59.83;102001.56;4909183;28;100604;-72
2021/11/14 10:39:00;;;;;;;1999.90;999.90;;;;;;;3.63;59.66;102005.13;4906962;28;97577;-72
2021/11/14 10:41:28;;;;;;;1999.90;999.90;;;;;;;3.66;59.43;102008.00;4908474;28;98170;-72
2021/11/14 10:44:04;;;;;;;1999.90;999.90;;;;;;;3.68;59.92;102006.38;4908630;28;99193;-73
2021/11/14 10:46:37;;;;;;;1999.90;999.90;;;;;;;3.70;59.38;102012.66;4915650;28;100043;-73
2021/11/14 10:49:07;;;;;;;1999.90;999.90;;;;;;;3.72;59.48;102005.78;4907115;28;98329;-72
2021/11/14 10:51:36;;;;;;;1999.90;999.90;;;;;;;3.73;59.47;102007.59;4910124;28;97499;-73
2021/11/14 10:54:05;;;;;;;1999.90;999.90;;;;;;;3.75;59.28;102010.34;4905497;28;98079;-72
2021/11/14 10:56:33;;;;;;;1999.90;999.90;;;;;;;3.74;59.08;102006.81;4913022;28;98078;-72
2021/11/14 10:59:01;;;;;;;1999.90;999.90;;;;;;;3.74;59.15;102008.50;4905446;28;97258;-72
2021/11/14 11:01:33;;;;;;;1999.90;999.90;;;;;;;3.75;59.32;102008.59;4909122;28;97186;-72